Terminal Aerodrome Forecast
Issued by NWS

Home | Current Version | Previous Version | Text Only | Print | Product List | Glossary On
Versions: 1 2 3 4 5 6 7 8 9 10 11 12 13 14 15 16 17 18 19 20 21 22 23 24 25 26 27
000
FTAK31 PAFA 201542 AAA
TAFAFA
TAF AMD
PAFA 201542Z 2016/2118 VRB04KT P6SM -RA FEW020 SCT050 OVC070
     FM210000 24004KT 6SM -RA BR BKN015 OVC025
     FM210600 25004KT P6SM VCSH OVC050=

USA.gov is the U.S. government's official web portal to all federal, state and local government web resources and services.